sensor_id;sensor_type;location;lat;lon;timestamp;P1;durP1;ratioP1;P2;durP2;ratioP2
14235;SDS011;7202;50.718;7.072;2022-08-01T00:02:11;1.63;;;1.17;;
14235;SDS011;7202;50.718;7.072;2022-08-01T00:04:40;1.83;;;1.33;;
14235;SDS011;7202;50.718;7.072;2022-08-01T00:07:10;1.25;;;1.15;;
14235;SDS011;7202;50.718;7.072;2022-08-01T00:09:38;3.28;;;1.40;;
14235;SDS011;7202;50.718;7.072;2022-08-01T00:12:07;1.25;;;1.15;;
14235;SDS011;7202;50.718;7.072;2022-08-01T00:14:36;2.35;;;1.30;;
14235;SDS011;7202;50.718;7.072;2022-08-01T00:17:05;2.08;;;1.35;;
14235;SDS011;7202;50.718;7.072;2022-08-01T00:19:34;1.83;;;1.20;;
14235;SDS011;7202;50.718;7.072;2022-08-01T00:22:03;0.98;;;0.95;;
14235;SDS011;7202;50.718;7.072;2022-08-01T00:24:33;1.80;;;1.13;;
14235;SDS011;7202;50.718;7.072;2022-08-01T00:27:02;2.00;;;1.30;;
14235;SDS011;7202;50.718;7.072;2022-08-01T00:29:31;1.88;;;1.20;;
14235;SDS011;7202;50.718;7.072;2022-08-01T00:32:19;1.88;;;1.40;;
14235;SDS011;7202;50.718;7.072;2022-08-01T00:34:48;1.30;;;1.20;;
14235;SDS011;7202;50.718;7.072;2022-08-01T00:37:17;3.67;;;1.10;;
14235;SDS011;7202;50.718;7.072;2022-08-01T00:39:47;1.38;;;1.20;;
14235;SDS011;7202;50.718;7.072;2022-08-01T00:42:15;1.55;;;1.20;;
14235;SDS011;7202;50.718;7.072;2022-08-01T00:44:44;3.30;;;1.25;;
14235;SDS011;7202;50.718;7.072;2022-08-01T00:47:13;1.98;;;1.42;;
14235;SDS011;7202;50.718;7.072;2022-08-01T00:49:41;1.10;;;1.00;;
14235;SDS011;7202;50.718;7.072;2022-08-01T00:52:10;3.22;;;1.20;;
14235;SDS011;7202;50.718;7.072;2022-08-01T00:54:39;3.63;;;1.25;;
14235;SDS011;7202;50.718;7.072;2022-08-01T00:57:09;1.40;;;1.30;;
14235;SDS011;7202;50.718;7.072;2022-08-01T00:59:41;1.50;;;1.05;;
14235;SDS011;7202;50.718;7.072;2022-08-01T01:02:09;1.48;;;1.08;;
14235;SDS011;7202;50.718;7.072;2022-08-01T01:04:41;1.30;;;1.20;;
14235;SDS011;7202;50.718;7.072;2022-08-01T01:07:12;1.85;;;1.40;;
14235;SDS011;7202;50.718;7.072;2022-08-01T01:09:49;1.35;;;1.20;;
14235;SDS011;7202;50.718;7.072;2022-08-01T01:12:27;5.22;;;1.60;;
14235;SDS011;7202;50.718;7.072;2022-08-01T01:15:06;1.50;;;1.30;;
14235;SDS011;7202;50.718;7.072;2022-08-01T01:17:40;1.80;;;1.50;;
14235;SDS011;7202;50.718;7.072;2022-08-01T01:20:18;1.77;;;1.33;;
14235;SDS011;7202;50.718;7.072;2022-08-01T01:23:00;1.70;;;1.40;;
14235;SDS011;7202;50.718;7.072;2022-08-01T01:29:02;3.45;;;1.48;;
14235;SDS011;7202;50.718;7.072;2022-08-01T01:31:36;2.40;;;1.45;;
14235;SDS011;7202;50.718;7.072;2022-08-01T01:34:11;2.03;;;1.13;;
14235;SDS011;7202;50.718;7.072;2022-08-01T01:36:41;3.00;;;1.45;;
14235;SDS011;7202;50.718;7.072;2022-08-01T01:39:12;5.68;;;2.55;;
14235;SDS011;7202;50.718;7.072;2022-08-01T01:41:43;2.38;;;1.75;;
14235;SDS011;7202;50.718;7.072;2022-08-01T01:44:15;2.72;;;1.60;;
14235;SDS011;7202;50.718;7.072;2022-08-01T01:46:46;1.30;;;1.20;;
14235;SDS011;7202;50.718;7.072;2022-08-01T01:49:16;2.42;;;1.67;;
14235;SDS011;7202;50.718;7.072;2022-08-01T01:51:50;4.00;;;1.58;;
14235;SDS011;7202;50.718;7.072;2022-08-01T01:54:29;2.80;;;1.40;;
14235;SDS011;7202;50.718;7.072;2022-08-01T01:57:01;3.25;;;1.73;;
14235;SDS011;7202;50.718;7.072;2022-08-01T01:59:34;2.15;;;1.48;;
14235;SDS011;7202;50.718;7.072;2022-08-01T02:02:06;2.70;;;1.38;;
14235;SDS011;7202;50.718;7.072;2022-08-01T02:04:38;4.03;;;1.67;;
14235;SDS011;7202;50.718;7.072;2022-08-01T02:07:09;1.73;;;1.30;;
14235;SDS011;7202;50.718;7.072;2022-08-01T02:09:40;2.33;;;1.30;;
14235;SDS011;7202;50.718;7.072;2022-08-01T02:12:11;1.70;;;1.42;;
14235;SDS011;7202;50.718;7.072;2022-08-01T02:14:42;2.25;;;1.38;;
14235;SDS011;7202;50.718;7.072;2022-08-01T02:17:14;1.48;;;1.38;;
14235;SDS011;7202;50.718;7.072;2022-08-01T02:19:45;1.83;;;1.27;;
14235;SDS011;7202;50.718;7.072;2022-08-01T02:22:15;3.47;;;1.75;;
14235;SDS011;7202;50.718;7.072;2022-08-01T02:24:49;1.67;;;1.20;;
14235;SDS011;7202;50.718;7.072;2022-08-01T02:27:23;2.58;;;1.60;;
14235;SDS011;7202;50.718;7.072;2022-08-01T02:29:56;1.63;;;1.48;;
14235;SDS011;7202;50.718;7.072;2022-08-01T02:32:29;1.85;;;1.52;;
14235;SDS011;7202;50.718;7.072;2022-08-01T02:34:59;4.95;;;1.73;;
14235;SDS011;7202;50.718;7.072;2022-08-01T02:37:31;3.45;;;2.05;;
14235;SDS011;7202;50.718;7.072;2022-08-01T02:40:02;1.98;;;1.50;;
14235;SDS011;7202;50.718;7.072;2022-08-01T02:42:38;2.00;;;1.58;;
14235;SDS011;7202;50.718;7.072;2022-08-01T02:45:13;2.90;;;1.88;;
14235;SDS011;7202;50.718;7.072;2022-08-01T02:47:42;2.92;;;1.70;;
14235;SDS011;7202;50.718;7.072;2022-08-01T02:50:13;2.00;;;1.55;;
14235;SDS011;7202;50.718;7.072;2022-08-01T02:52:44;3.45;;;1.70;;
14235;SDS011;7202;50.718;7.072;2022-08-01T02:55:16;2.45;;;1.77;;
14235;SDS011;7202;50.718;7.072;2022-08-01T02:57:46;2.72;;;1.70;;
14235;SDS011;7202;50.718;7.072;2022-08-01T03:00:20;1.92;;;1.50;;
14235;SDS011;7202;50.718;7.072;2022-08-01T03:02:50;1.70;;;1.60;;
14235;SDS011;7202;50.718;7.072;2022-08-01T03:05:22;1.75;;;1.52;;
14235;SDS011;7202;50.718;7.072;2022-08-01T03:07:53;3.17;;;1.95;;
14235;SDS011;7202;50.718;7.072;2022-08-01T03:10:30;2.75;;;1.80;;
14235;SDS011;7202;50.718;7.072;2022-08-01T03:13:01;3.75;;;1.67;;
14235;SDS011;7202;50.718;7.072;2022-08-01T03:15:36;2.00;;;1.80;;
14235;SDS011;7202;50.718;7.072;2022-08-01T03:18:08;3.72;;;1.83;;
14235;SDS011;7202;50.718;7.072;2022-08-01T03:20:38;4.53;;;1.90;;
14235;SDS011;7202;50.718;7.072;2022-08-01T03:23:11;1.80;;;1.65;;
14235;SDS011;7202;50.718;7.072;2022-08-01T03:25:40;4.45;;;1.80;;
14235;SDS011;7202;50.718;7.072;2022-08-01T03:28:12;3.70;;;1.70;;
14235;SDS011;7202;50.718;7.072;2022-08-01T03:30:43;2.63;;;1.70;;
14235;SDS011;7202;50.718;7.072;2022-08-01T03:33:12;3.17;;;2.00;;
14235;SDS011;7202;50.718;7.072;2022-08-01T03:35:42;4.72;;;1.80;;
14235;SDS011;7202;50.718;7.072;2022-08-01T03:38:16;1.90;;;1.70;;
14235;SDS011;7202;50.718;7.072;2022-08-01T03:40:47;3.08;;;1.73;;
14235;SDS011;7202;50.718;7.072;2022-08-01T03:43:21;3.55;;;2.45;;
14235;SDS011;7202;50.718;7.072;2022-08-01T03:45:56;1.90;;;1.80;;
14235;SDS011;7202;50.718;7.072;2022-08-01T03:48:30;2.00;;;1.77;;
14235;SDS011;7202;50.718;7.072;2022-08-01T03:51:03;3.40;;;2.00;;
14235;SDS011;7202;50.718;7.072;2022-08-01T03:53:33;5.85;;;2.05;;
14235;SDS011;7202;50.718;7.072;2022-08-01T03:56:08;5.50;;;2.25;;
14235;SDS011;7202;50.718;7.072;2022-08-01T03:58:39;4.32;;;1.95;;
14235;SDS011;7202;50.718;7.072;2022-08-01T04:01:10;4.15;;;2.15;;
14235;SDS011;7202;50.718;7.072;2022-08-01T04:03:42;2.13;;;1.73;;
14235;SDS011;7202;50.718;7.072;2022-08-01T04:06:11;2.20;;;2.00;;
14235;SDS011;7202;50.718;7.072;2022-08-01T04:08:41;2.42;;;2.22;;
14235;SDS011;7202;50.718;7.072;2022-08-01T04:11:09;3.85;;;2.20;;
14235;SDS011;7202;50.718;7.072;2022-08-01T04:13:39;2.50;;;2.30;;
14235;SDS011;7202;50.718;7.072;2022-08-01T04:16:11;3.88;;;2.10;;
14235;SDS011;7202;50.718;7.072;2022-08-01T04:18:40;4.70;;;2.42;;
14235;SDS011;7202;50.718;7.072;2022-08-01T04:21:09;4.88;;;2.20;;
14235;SDS011;7202;50.718;7.072;2022-08-01T04:23:37;3.08;;;2.47;;
14235;SDS011;7202;50.718;7.072;2022-08-01T04:26:09;3.00;;;2.20;;
14235;SDS011;7202;50.718;7.072;2022-08-01T04:28:40;3.63;;;2.38;;
14235;SDS011;7202;50.718;7.072;2022-08-01T04:31:12;3.42;;;2.72;;
14235;SDS011;7202;50.718;7.072;2022-08-01T04:33:46;2.65;;;2.38;;
14235;SDS011;7202;50.718;7.072;2022-08-01T04:36:19;2.88;;;2.05;;
14235;SDS011;7202;50.718;7.072;2022-08-01T04:38:52;3.13;;;2.45;;
14235;SDS011;7202;50.718;7.072;2022-08-01T04:41:23;3.10;;;2.75;;
14235;SDS011;7202;50.718;7.072;2022-08-01T04:43:53;2.83;;;2.53;;
14235;SDS011;7202;50.718;7.072;2022-08-01T04:46:23;3.17;;;2.42;;
14235;SDS011;7202;50.718;7.072;2022-08-01T04:48:52;2.72;;;2.45;;
14235;SDS011;7202;50.718;7.072;2022-08-01T04:51:22;3.60;;;2.90;;
14235;SDS011;7202;50.718;7.072;2022-08-01T04:53:51;3.20;;;2.55;;
14235;SDS011;7202;50.718;7.072;2022-08-01T04:56:20;4.95;;;2.58;;
14235;SDS011;7202;50.718;7.072;2022-08-01T04:58:48;4.30;;;2.78;;
14235;SDS011;7202;50.718;7.072;2022-08-01T05:01:50;5.40;;;2.78;;
14235;SDS011;7202;50.718;7.072;2022-08-01T05:04:19;4.15;;;2.88;;
14235;SDS011;7202;50.718;7.072;2022-08-01T05:06:47;2.85;;;2.58;;
14235;SDS011;7202;50.718;7.072;2022-08-01T05:09:16;3.45;;;2.78;;
14235;SDS011;7202;50.718;7.072;2022-08-01T05:11:44;3.40;;;2.63;;
14235;SDS011;7202;50.718;7.072;2022-08-01T05:14:13;3.83;;;2.80;;
14235;SDS011;7202;50.718;7.072;2022-08-01T05:16:42;3.92;;;2.75;;
14235;SDS011;7202;50.718;7.072;2022-08-01T05:19:12;3.10;;;2.47;;
14235;SDS011;7202;50.718;7.072;2022-08-01T05:21:40;3.92;;;2.88;;
14235;SDS011;7202;50.718;7.072;2022-08-01T05:24:09;4.20;;;3.08;;
14235;SDS011;7202;50.718;7.072;2022-08-01T05:26:39;4.38;;;3.20;;
14235;SDS011;7202;50.718;7.072;2022-08-01T05:29:08;4.32;;;3.10;;
14235;SDS011;7202;50.718;7.072;2022-08-01T05:31:37;5.30;;;2.92;;
14235;SDS011;7202;50.718;7.072;2022-08-01T05:34:05;3.40;;;3.10;;
14235;SDS011;7202;50.718;7.072;2022-08-01T05:36:42;4.70;;;3.78;;
14235;SDS011;7202;50.718;7.072;2022-08-01T05:39:11;4.47;;;3.40;;
14235;SDS011;7202;50.718;7.072;2022-08-01T05:41:40;4.80;;;3.30;;
14235;SDS011;7202;50.718;7.072;2022-08-01T05:44:09;7.32;;;3.53;;
14235;SDS011;7202;50.718;7.072;2022-08-01T05:46:38;4.55;;;4.10;;
14235;SDS011;7202;50.718;7.072;2022-08-01T05:49:07;7.82;;;3.78;;
14235;SDS011;7202;50.718;7.072;2022-08-01T05:51:35;8.05;;;4.15;;
14235;SDS011;7202;50.718;7.072;2022-08-01T05:54:05;5.38;;;4.32;;
14235;SDS011;7202;50.718;7.072;2022-08-01T05:56:34;5.78;;;4.32;;
14235;SDS011;7202;50.718;7.072;2022-08-01T05:59:03;6.60;;;4.28;;
14235;SDS011;7202;50.718;7.072;2022-08-01T06:01:31;5.53;;;4.03;;
14235;SDS011;7202;50.718;7.072;2022-08-01T06:04:00;6.43;;;3.92;;
14235;SDS011;7202;50.718;7.072;2022-08-01T06:06:29;4.72;;;3.60;;
14235;SDS011;7202;50.718;7.072;2022-08-01T06:08:57;4.25;;;3.85;;
14235;SDS011;7202;50.718;7.072;2022-08-01T06:11:27;5.50;;;3.65;;
14235;SDS011;7202;50.718;7.072;2022-08-01T06:13:56;3.88;;;3.47;;
14235;SDS011;7202;50.718;7.072;2022-08-01T06:16:25;7.93;;;5.05;;
14235;SDS011;7202;50.718;7.072;2022-08-01T06:18:53;8.15;;;4.57;;
14235;SDS011;7202;50.718;7.072;2022-08-01T06:21:22;4.70;;;3.92;;
14235;SDS011;7202;50.718;7.072;2022-08-01T06:23:51;7.47;;;5.82;;
14235;SDS011;7202;50.718;7.072;2022-08-01T06:26:20;7.68;;;5.72;;
14235;SDS011;7202;50.718;7.072;2022-08-01T06:28:50;7.32;;;5.40;;
14235;SDS011;7202;50.718;7.072;2022-08-01T06:31:18;7.03;;;5.95;;
14235;SDS011;7202;50.718;7.072;2022-08-01T06:33:47;10.07;;;5.88;;
14235;SDS011;7202;50.718;7.072;2022-08-01T06:36:16;9.55;;;6.50;;
14235;SDS011;7202;50.718;7.072;2022-08-01T06:38:44;8.25;;;5.93;;
14235;SDS011;7202;50.718;7.072;2022-08-01T06:41:13;7.47;;;5.80;;
14235;SDS011;7202;50.718;7.072;2022-08-01T06:43:41;7.93;;;6.35;;
14235;SDS011;7202;50.718;7.072;2022-08-01T06:46:11;9.60;;;6.35;;
14235;SDS011;7202;50.718;7.072;2022-08-01T06:48:40;8.60;;;5.60;;
14235;SDS011;7202;50.718;7.072;2022-08-01T06:51:09;8.45;;;6.55;;
14235;SDS011;7202;50.718;7.072;2022-08-01T06:53:40;8.88;;;6.30;;
14235;SDS011;7202;50.718;7.072;2022-08-01T06:56:10;9.32;;;7.22;;
14235;SDS011;7202;50.718;7.072;2022-08-01T06:58:38;8.88;;;6.55;;
14235;SDS011;7202;50.718;7.072;2022-08-01T07:01:07;10.15;;;6.35;;
14235;SDS011;7202;50.718;7.072;2022-08-01T07:03:37;7.53;;;6.30;;
14235;SDS011;7202;50.718;7.072;2022-08-01T07:06:21;8.02;;;6.60;;
14235;SDS011;7202;50.718;7.072;2022-08-01T07:08:50;10.20;;;6.70;;
14235;SDS011;7202;50.718;7.072;2022-08-01T07:11:19;8.95;;;6.75;;
14235;SDS011;7202;50.718;7.072;2022-08-01T07:13:48;7.65;;;6.50;;
14235;SDS011;7202;50.718;7.072;2022-08-01T07:16:17;8.57;;;6.15;;
14235;SDS011;7202;50.718;7.072;2022-08-01T07:18:47;10.60;;;6.70;;
14235;SDS011;7202;50.718;7.072;2022-08-01T07:21:15;10.93;;;6.15;;
14235;SDS011;7202;50.718;7.072;2022-08-01T07:24:04;9.25;;;6.20;;
14235;SDS011;7202;50.718;7.072;2022-08-01T07:26:40;8.20;;;5.88;;
14235;SDS011;7202;50.718;7.072;2022-08-01T07:29:20;7.32;;;6.55;;
14235;SDS011;7202;50.718;7.072;2022-08-01T07:31:50;7.18;;;5.97;;
14235;SDS011;7202;50.718;7.072;2022-08-01T07:34:21;9.63;;;6.43;;
14235;SDS011;7202;50.718;7.072;2022-08-01T07:36:50;9.60;;;6.63;;
14235;SDS011;7202;50.718;7.072;2022-08-01T07:39:19;7.30;;;6.20;;
14235;SDS011;7202;50.718;7.072;2022-08-01T07:41:48;7.97;;;6.10;;
14235;SDS011;7202;50.718;7.072;2022-08-01T07:44:33;6.20;;;5.07;;
14235;SDS011;7202;50.718;7.072;2022-08-01T07:47:02;7.47;;;5.70;;
14235;SDS011;7202;50.718;7.072;2022-08-01T07:49:32;6.93;;;5.60;;
14235;SDS011;7202;50.718;7.072;2022-08-01T07:52:06;5.80;;;5.20;;
14235;SDS011;7202;50.718;7.072;2022-08-01T07:54:35;6.57;;;5.93;;
14235;SDS011;7202;50.718;7.072;2022-08-01T07:57:04;8.40;;;6.00;;
14235;SDS011;7202;50.718;7.072;2022-08-01T07:59:33;7.47;;;5.63;;
14235;SDS011;7202;50.718;7.072;2022-08-01T08:02:02;7.57;;;5.82;;
14235;SDS011;7202;50.718;7.072;2022-08-01T08:04:32;5.65;;;4.72;;
14235;SDS011;7202;50.718;7.072;2022-08-01T08:07:02;7.85;;;5.05;;
14235;SDS011;7202;50.718;7.072;2022-08-01T08:09:31;5.55;;;4.90;;
14235;SDS011;7202;50.718;7.072;2022-08-01T08:12:04;7.32;;;5.13;;
14235;SDS011;7202;50.718;7.072;2022-08-01T08:14:34;4.72;;;4.32;;
14235;SDS011;7202;50.718;7.072;2022-08-01T08:17:03;7.95;;;4.75;;
14235;SDS011;7202;50.718;7.072;2022-08-01T08:19:33;6.40;;;4.78;;
14235;SDS011;7202;50.718;7.072;2022-08-01T08:22:05;4.57;;;4.13;;
14235;SDS011;7202;50.718;7.072;2022-08-01T08:24:35;6.40;;;4.28;;
14235;SDS011;7202;50.718;7.072;2022-08-01T08:27:13;8.88;;;4.28;;
14235;SDS011;7202;50.718;7.072;2022-08-01T08:29:42;5.47;;;4.30;;
14235;SDS011;7202;50.718;7.072;2022-08-01T08:32:11;6.32;;;4.50;;
14235;SDS011;7202;50.718;7.072;2022-08-01T08:34:41;6.30;;;4.47;;
14235;SDS011;7202;50.718;7.072;2022-08-01T08:37:10;5.20;;;4.18;;
14235;SDS011;7202;50.718;7.072;2022-08-01T08:39:39;4.70;;;3.97;;
14235;SDS011;7202;50.718;7.072;2022-08-01T08:42:09;8.35;;;4.10;;
14235;SDS011;7202;50.718;7.072;2022-08-01T08:44:39;5.40;;;3.75;;
14235;SDS011;7202;50.718;7.072;2022-08-01T08:47:10;5.40;;;4.00;;
14235;SDS011;7202;50.718;7.072;2022-08-01T08:49:48;5.85;;;4.00;;
14235;SDS011;7202;50.718;7.072;2022-08-01T08:52:18;4.88;;;3.92;;
14235;SDS011;7202;50.718;7.072;2022-08-01T08:54:48;4.30;;;3.90;;
14235;SDS011;7202;50.718;7.072;2022-08-01T08:57:18;6.18;;;4.18;;
14235;SDS011;7202;50.718;7.072;2022-08-01T08:59:48;5.70;;;4.15;;
14235;SDS011;7202;50.718;7.072;2022-08-01T09:02:18;4.38;;;3.97;;
14235;SDS011;7202;50.718;7.072;2022-08-01T09:04:49;5.65;;;4.35;;
14235;SDS011;7202;50.718;7.072;2022-08-01T09:07:18;5.35;;;4.13;;
14235;SDS011;7202;50.718;7.072;2022-08-01T09:09:47;5.07;;;4.57;;
14235;SDS011;7202;50.718;7.072;2022-08-01T09:12:17;6.05;;;4.10;;
14235;SDS011;7202;50.718;7.072;2022-08-01T09:14:47;4.47;;;3.63;;
14235;SDS011;7202;50.718;7.072;2022-08-01T09:17:20;4.60;;;3.70;;
14235;SDS011;7202;50.718;7.072;2022-08-01T09:19:50;3.80;;;3.35;;
14235;SDS011;7202;50.718;7.072;2022-08-01T09:22:22;3.85;;;3.55;;
14235;SDS011;7202;50.718;7.072;2022-08-01T09:24:58;4.22;;;3.78;;
14235;SDS011;7202;50.718;7.072;2022-08-01T09:27:29;4.65;;;3.30;;
14235;SDS011;7202;50.718;7.072;2022-08-01T09:30:07;3.95;;;3.47;;
14235;SDS011;7202;50.718;7.072;2022-08-01T09:32:51;3.90;;;3.60;;
14235;SDS011;7202;50.718;7.072;2022-08-01T09:35:25;4.05;;;3.65;;
14235;SDS011;7202;50.718;7.072;2022-08-01T09:38:13;3.75;;;3.28;;
14235;SDS011;7202;50.718;7.072;2022-08-01T09:40:44;3.95;;;3.42;;
14235;SDS011;7202;50.718;7.072;2022-08-01T09:43:15;6.32;;;3.30;;
14235;SDS011;7202;50.718;7.072;2022-08-01T09:45:45;3.28;;;2.42;;
14235;SDS011;7202;50.718;7.072;2022-08-01T09:48:16;3.45;;;2.70;;
14235;SDS011;7202;50.718;7.072;2022-08-01T09:50:50;3.42;;;2.80;;
14235;SDS011;7202;50.718;7.072;2022-08-01T09:53:21;5.63;;;2.65;;
14235;SDS011;7202;50.718;7.072;2022-08-01T09:56:07;2.53;;;2.33;;
14235;SDS011;7202;50.718;7.072;2022-08-01T09:58:50;4.10;;;2.75;;
14235;SDS011;7202;50.718;7.072;2022-08-01T10:01:26;2.92;;;2.30;;
14235;SDS011;7202;50.718;7.072;2022-08-01T10:04:05;2.50;;;2.30;;
14235;SDS011;7202;50.718;7.072;2022-08-01T10:06:39;2.65;;;2.40;;
14235;SDS011;7202;50.718;7.072;2022-08-01T10:09:10;2.38;;;2.17;;
14235;SDS011;7202;50.718;7.072;2022-08-01T10:11:40;4.15;;;2.90;;
14235;SDS011;7202;50.718;7.072;2022-08-01T10:14:11;2.38;;;2.17;;
14235;SDS011;7202;50.718;7.072;2022-08-01T10:16:44;3.92;;;3.00;;
14235;SDS011;7202;50.718;7.072;2022-08-01T10:19:20;3.28;;;2.65;;
14235;SDS011;7202;50.718;7.072;2022-08-01T10:21:52;2.72;;;2.53;;
14235;SDS011;7202;50.718;7.072;2022-08-01T10:24:25;4.53;;;2.90;;
14235;SDS011;7202;50.718;7.072;2022-08-01T10:26:56;3.05;;;2.85;;
14235;SDS011;7202;50.718;7.072;2022-08-01T10:29:42;2.80;;;2.60;;
14235;SDS011;7202;50.718;7.072;2022-08-01T10:32:34;3.05;;;2.47;;
14235;SDS011;7202;50.718;7.072;2022-08-01T10:35:06;3.03;;;2.70;;
14235;SDS011;7202;50.718;7.072;2022-08-01T10:37:43;2.97;;;2.67;;
14235;SDS011;7202;50.718;7.072;2022-08-01T10:40:18;3.63;;;2.65;;
14235;SDS011;7202;50.718;7.072;2022-08-01T10:42:57;2.55;;;2.00;;
14235;SDS011;7202;50.718;7.072;2022-08-01T10:45:26;2.67;;;2.47;;
14235;SDS011;7202;50.718;7.072;2022-08-01T10:47:57;3.55;;;2.47;;
14235;SDS011;7202;50.718;7.072;2022-08-01T10:50:33;3.17;;;2.88;;
14235;SDS011;7202;50.718;7.072;2022-08-01T10:53:12;4.55;;;3.75;;
14235;SDS011;7202;50.718;7.072;2022-08-01T10:55:58;4.38;;;2.92;;
14235;SDS011;7202;50.718;7.072;2022-08-01T10:58:29;5.72;;;3.25;;
14235;SDS011;7202;50.718;7.072;2022-08-01T11:01:21;7.38;;;3.30;;
14235;SDS011;7202;50.718;7.072;2022-08-01T11:04:00;7.40;;;3.30;;
14235;SDS011;7202;50.718;7.072;2022-08-01T11:06:41;2.85;;;2.50;;
14235;SDS011;7202;50.718;7.072;2022-08-01T11:09:30;2.83;;;2.58;;
14235;SDS011;7202;50.718;7.072;2022-08-01T11:12:07;2.92;;;2.63;;
14235;SDS011;7202;50.718;7.072;2022-08-01T11:17:57;2.95;;;2.75;;
14235;SDS011;7202;50.718;7.072;2022-08-01T11:20:28;2.78;;;2.58;;
14235;SDS011;7202;50.718;7.072;2022-08-01T11:28:44;2.63;;;2.42;;
14235;SDS011;7202;50.718;7.072;2022-08-01T11:31:49;2.80;;;2.10;;
14235;SDS011;7202;50.718;7.072;2022-08-01T11:34:19;3.70;;;2.50;;
14235;SDS011;7202;50.718;7.072;2022-08-01T11:37:22;3.28;;;2.95;;
14235;SDS011;7202;50.718;7.072;2022-08-01T11:40:15;3.05;;;2.70;;
14235;SDS011;7202;50.718;7.072;2022-08-01T11:45:46;3.58;;;2.67;;
14235;SDS011;7202;50.718;7.072;2022-08-01T11:48:17;2.70;;;2.50;;
14235;SDS011;7202;50.718;7.072;2022-08-01T11:50:46;2.75;;;2.55;;
14235;SDS011;7202;50.718;7.072;2022-08-01T11:53:17;5.50;;;3.53;;
14235;SDS011;7202;50.718;7.072;2022-08-01T11:55:48;4.85;;;3.97;;
14235;SDS011;7202;50.718;7.072;2022-08-01T11:58:22;3.53;;;3.22;;
14235;SDS011;7202;50.718;7.072;2022-08-01T12:00:57;4.43;;;3.70;;
14235;SDS011;7202;50.718;7.072;2022-08-01T12:03:27;3.78;;;3.28;;
14235;SDS011;7202;50.718;7.072;2022-08-01T12:06:00;4.68;;;3.95;;
14235;SDS011;7202;50.718;7.072;2022-08-01T12:08:29;3.55;;;3.22;;
14235;SDS011;7202;50.718;7.072;2022-08-01T12:11:01;3.72;;;3.25;;
14235;SDS011;7202;50.718;7.072;2022-08-01T12:13:40;4.05;;;3.65;;
14235;SDS011;7202;50.718;7.072;2022-08-01T12:16:10;3.45;;;3.15;;
14235;SDS011;7202;50.718;7.072;2022-08-01T12:18:39;4.72;;;3.38;;
14235;SDS011;7202;50.718;7.072;2022-08-01T12:21:09;5.90;;;3.17;;
14235;SDS011;7202;50.718;7.072;2022-08-01T12:23:37;3.17;;;2.88;;
14235;SDS011;7202;50.718;7.072;2022-08-01T12:26:06;3.50;;;3.20;;
14235;SDS011;7202;50.718;7.072;2022-08-01T12:28:56;4.28;;;3.13;;
14235;SDS011;7202;50.718;7.072;2022-08-01T12:31:31;3.38;;;3.05;;
14235;SDS011;7202;50.718;7.072;2022-08-01T12:36:55;4.95;;;3.50;;
14235;SDS011;7202;50.718;7.072;2022-08-01T12:39:29;3.90;;;3.30;;
14235;SDS011;7202;50.718;7.072;2022-08-01T12:41:59;4.07;;;3.22;;
14235;SDS011;7202;50.718;7.072;2022-08-01T12:44:29;3.30;;;2.88;;
14235;SDS011;7202;50.718;7.072;2022-08-01T12:46:58;3.05;;;2.78;;
14235;SDS011;7202;50.718;7.072;2022-08-01T12:49:28;4.38;;;2.88;;
14235;SDS011;7202;50.718;7.072;2022-08-01T12:51:58;2.80;;;2.60;;
14235;SDS011;7202;50.718;7.072;2022-08-01T12:54:26;3.47;;;3.08;;
14235;SDS011;7202;50.718;7.072;2022-08-01T12:56:55;3.28;;;2.83;;
14235;SDS011;7202;50.718;7.072;2022-08-01T12:59:26;3.20;;;2.95;;
14235;SDS011;7202;50.718;7.072;2022-08-01T13:02:07;2.88;;;2.60;;
14235;SDS011;7202;50.718;7.072;2022-08-01T13:04:48;2.90;;;2.58;;
14235;SDS011;7202;50.718;7.072;2022-08-01T13:07:18;4.80;;;2.67;;
14235;SDS011;7202;50.718;7.072;2022-08-01T13:09:49;3.95;;;2.53;;
14235;SDS011;7202;50.718;7.072;2022-08-01T13:12:18;3.28;;;2.90;;
14235;SDS011;7202;50.718;7.072;2022-08-01T13:14:47;5.13;;;2.60;;
14235;SDS011;7202;50.718;7.072;2022-08-01T13:17:30;2.90;;;2.60;;
14235;SDS011;7202;50.718;7.072;2022-08-01T13:19:59;4.78;;;2.78;;
14235;SDS011;7202;50.718;7.072;2022-08-01T13:22:33;4.10;;;2.47;;
14235;SDS011;7202;50.718;7.072;2022-08-01T13:25:09;3.22;;;2.88;;
14235;SDS011;7202;50.718;7.072;2022-08-01T13:27:41;2.70;;;2.50;;
14235;SDS011;7202;50.718;7.072;2022-08-01T13:30:20;2.03;;;1.88;;
14235;SDS011;7202;50.718;7.072;2022-08-01T13:32:58;3.10;;;1.88;;
14235;SDS011;7202;50.718;7.072;2022-08-01T13:35:27;5.22;;;2.03;;
14235;SDS011;7202;50.718;7.072;2022-08-01T13:37:56;2.28;;;1.98;;
14235;SDS011;7202;50.718;7.072;2022-08-01T13:40:25;1.70;;;1.60;;
14235;SDS011;7202;50.718;7.072;2022-08-01T13:42:55;1.92;;;1.70;;
14235;SDS011;7202;50.718;7.072;2022-08-01T13:45:23;3.35;;;1.92;;
14235;SDS011;7202;50.718;7.072;2022-08-01T13:47:52;5.05;;;2.42;;
14235;SDS011;7202;50.718;7.072;2022-08-01T13:50:40;2.40;;;2.20;;
14235;SDS011;7202;50.718;7.072;2022-08-01T13:53:09;2.63;;;2.42;;
14235;SDS011;7202;50.718;7.072;2022-08-01T13:55:37;7.22;;;2.70;;
14235;SDS011;7202;50.718;7.072;2022-08-01T13:58:06;4.72;;;2.90;;
14235;SDS011;7202;50.718;7.072;2022-08-01T14:00:34;3.88;;;2.50;;
14235;SDS011;7202;50.718;7.072;2022-08-01T14:03:03;6.30;;;3.00;;
14235;SDS011;7202;50.718;7.072;2022-08-01T14:05:32;4.65;;;2.92;;
14235;SDS011;7202;50.718;7.072;2022-08-01T14:08:02;5.35;;;3.45;;
14235;SDS011;7202;50.718;7.072;2022-08-01T14:10:31;3.30;;;3.00;;
14235;SDS011;7202;50.718;7.072;2022-08-01T14:13:00;4.55;;;3.20;;
14235;SDS011;7202;50.718;7.072;2022-08-01T14:15:32;6.25;;;2.95;;
14235;SDS011;7202;50.718;7.072;2022-08-01T14:18:05;4.18;;;2.97;;
14235;SDS011;7202;50.718;7.072;2022-08-01T14:20:35;3.47;;;2.63;;
14235;SDS011;7202;50.718;7.072;2022-08-01T14:23:06;2.88;;;2.58;;
14235;SDS011;7202;50.718;7.072;2022-08-01T14:25:36;5.05;;;2.78;;
14235;SDS011;7202;50.718;7.072;2022-08-01T14:28:25;4.55;;;2.72;;
14235;SDS011;7202;50.718;7.072;2022-08-01T14:30:55;3.28;;;2.50;;
14235;SDS011;7202;50.718;7.072;2022-08-01T14:33:23;6.35;;;2.85;;
14235;SDS011;7202;50.718;7.072;2022-08-01T14:35:55;2.65;;;2.45;;
14235;SDS011;7202;50.718;7.072;2022-08-01T14:38:45;2.20;;;2.00;;
14235;SDS011;7202;50.718;7.072;2022-08-01T14:41:14;2.22;;;2.03;;
14235;SDS011;7202;50.718;7.072;2022-08-01T14:43:43;2.33;;;2.13;;
14235;SDS011;7202;50.718;7.072;2022-08-01T14:46:11;2.78;;;2.10;;
14235;SDS011;7202;50.718;7.072;2022-08-01T14:48:40;2.30;;;1.90;;
14235;SDS011;7202;50.718;7.072;2022-08-01T14:51:09;3.67;;;1.85;;
14235;SDS011;7202;50.718;7.072;2022-08-01T14:53:37;2.00;;;1.90;;
14235;SDS011;7202;50.718;7.072;2022-08-01T14:56:17;2.70;;;1.90;;
14235;SDS011;7202;50.718;7.072;2022-08-01T14:58:46;2.17;;;1.95;;
14235;SDS011;7202;50.718;7.072;2022-08-01T15:01:15;2.42;;;2.20;;
14235;SDS011;7202;50.718;7.072;2022-08-01T15:03:44;3.55;;;1.80;;
14235;SDS011;7202;50.718;7.072;2022-08-01T15:06:14;3.58;;;2.00;;
14235;SDS011;7202;50.718;7.072;2022-08-01T15:08:43;2.72;;;2.03;;
14235;SDS011;7202;50.718;7.072;2022-08-01T15:11:13;2.70;;;2.00;;
14235;SDS011;7202;50.718;7.072;2022-08-01T15:13:43;6.78;;;1.70;;
14235;SDS011;7202;50.718;7.072;2022-08-01T15:16:11;1.80;;;1.70;;
14235;SDS011;7202;50.718;7.072;2022-08-01T15:18:40;2.10;;;1.90;;
14235;SDS011;7202;50.718;7.072;2022-08-01T15:21:08;5.35;;;2.00;;
14235;SDS011;7202;50.718;7.072;2022-08-01T15:23:46;1.98;;;1.52;;
14235;SDS011;7202;50.718;7.072;2022-08-01T15:26:15;2.22;;;1.83;;
14235;SDS011;7202;50.718;7.072;2022-08-01T15:28:45;1.88;;;1.73;;
14235;SDS011;7202;50.718;7.072;2022-08-01T15:31:13;4.00;;;1.80;;
14235;SDS011;7202;50.718;7.072;2022-08-01T15:33:42;1.65;;;1.55;;
14235;SDS011;7202;50.718;7.072;2022-08-01T15:36:11;1.85;;;1.50;;
14235;SDS011;7202;50.718;7.072;2022-08-01T15:38:41;1.98;;;1.70;;
14235;SDS011;7202;50.718;7.072;2022-08-01T15:41:09;1.75;;;1.60;;
14235;SDS011;7202;50.718;7.072;2022-08-01T15:43:38;2.83;;;1.83;;
14235;SDS011;7202;50.718;7.072;2022-08-01T15:46:12;2.92;;;2.00;;
14235;SDS011;7202;50.718;7.072;2022-08-01T15:48:41;3.22;;;1.90;;